Time;durP1;ratioP1;P1;durP2;ratioP2;P2;SDS_P1;SDS_P2;PMS_P1;PMS_P2;Temp;Humidity;BMP_temperature;BMP_pressure;BME280_temperature;BME280_humidity;BME280_pressure;Samples;Min_cycle;Max_cycle;Signal;HPM_P1;HPM_P2
2021/09/09 00:02:21;;;;;;;7.93;7.17;;;16.70;99.90;;;;;;4994701;28;20183;-70
2021/09/09 00:04:47;;;;;;;8.57;7.00;;;16.60;99.90;;;;;;4995006;28;20634;-70
2021/09/09 00:07:12;;;;;;;8.03;7.13;;;16.60;99.90;;;;;;4978289;28;20187;-70
2021/09/09 00:09:38;;;;;;;10.30;8.00;;;16.60;99.90;;;;;;4983629;28;20857;-70
2021/09/09 00:12:07;;;;;;;8.50;7.40;;;16.60;99.90;;;;;;4995017;28;20673;-70
2021/09/09 00:14:35;;;;;;;7.40;6.20;;;16.60;99.90;;;;;;4994879;28;20182;-68
2021/09/09 00:17:01;;;;;;;9.60;7.33;;;16.60;99.90;;;;;;4994505;28;20385;-69
2021/09/09 00:19:27;;;;;;;8.30;7.30;;;16.60;99.90;;;;;;4970333;28;20964;-69
2021/09/09 00:21:53;;;;;;;7.07;6.30;;;16.50;99.90;;;;;;4974887;28;20184;-69
2021/09/09 00:24:18;;;;;;;7.23;6.50;;;16.50;99.90;;;;;;4975126;28;20418;-68
2021/09/09 00:26:44;;;;;;;9.97;7.30;;;16.40;99.90;;;;;;4974816;28;20556;-69
2021/09/09 00:29:10;;;;;;;7.00;6.30;;;16.40;99.90;;;;;;4978694;28;20200;-69
2021/09/09 00:31:36;;;;;;;6.50;5.90;;;16.30;99.90;;;;;;4983889;28;20462;-69
2021/09/09 00:34:01;;;;;;;7.70;6.60;;;16.30;99.90;;;;;;4975671;28;20669;-69
2021/09/09 00:36:27;;;;;;;6.83;6.10;;;16.30;99.90;;;;;;4974959;28;20251;-69
2021/09/09 00:38:53;;;;;;;6.13;5.53;;;16.30;99.90;;;;;;4975815;28;20192;-69
2021/09/09 00:41:18;;;;;;;7.23;6.43;;;16.30;99.90;;;;;;4994369;28;20183;-69
2021/09/09 00:43:44;;;;;;;7.90;6.70;;;16.20;99.90;;;;;;4987110;28;20214;-69
2021/09/09 00:46:10;;;;;;;7.07;6.37;;;16.20;99.90;;;;;;4974817;28;20207;-69
2021/09/09 00:48:35;;;;;;;6.80;6.07;;;16.20;99.90;;;;;;4974263;28;20663;-70
2021/09/09 00:51:01;;;;;;;6.93;6.23;;;16.20;99.90;;;;;;4992990;28;20349;-69
2021/09/09 00:53:27;;;;;;;6.97;6.33;;;16.10;99.90;;;;;;4994271;28;20175;-69
2021/09/09 00:55:53;;;;;;;8.30;7.37;;;16.10;99.90;;;;;;4993811;28;20503;-69
2021/09/09 00:58:19;;;;;;;9.17;6.47;;;16.00;99.90;;;;;;4987981;28;20435;-69
2021/09/09 01:00:45;;;;;;;7.13;6.43;;;15.90;99.90;;;;;;4990250;28;20737;-69
2021/09/09 01:03:11;;;;;;;8.80;7.10;;;15.90;99.90;;;;;;4994165;28;20393;-70
2021/09/09 01:05:38;;;;;;;7.93;6.30;;;15.90;99.90;;;;;;4976575;28;20550;-68
2021/09/09 01:08:07;;;;;;;8.70;6.27;;;15.90;99.90;;;;;;4993570;28;20226;-69
2021/09/09 01:10:36;;;;;;;7.50;6.50;;;15.90;99.90;;;;;;4981821;28;20806;-70
2021/09/09 01:13:10;;;;;;;6.70;6.07;;;15.90;99.90;;;;;;4974998;28;20442;-69
2021/09/09 01:15:40;;;;;;;9.00;7.10;;;15.90;99.90;;;;;;4974572;28;20419;-69
2021/09/09 01:18:11;;;;;;;7.87;7.07;;;15.90;99.90;;;;;;4974064;28;20408;-68
2021/09/09 01:20:37;;;;;;;5.90;5.40;;;16.00;99.90;;;;;;4986294;28;20425;-69
2021/09/09 01:23:03;;;;;;;8.03;6.17;;;16.00;99.90;;;;;;4993783;28;20401;-68
2021/09/09 01:25:29;;;;;;;6.97;6.27;;;16.00;99.90;;;;;;4993738;28;20175;-69
2021/09/09 01:27:55;;;;;;;7.33;6.60;;;16.00;99.90;;;;;;4986727;28;21056;-69
2021/09/09 01:30:21;;;;;;;10.73;6.93;;;16.00;99.90;;;;;;4982388;28;20206;-69
2021/09/09 01:32:46;;;;;;;7.30;6.60;;;16.00;99.90;;;;;;4993473;28;20187;-69
2021/09/09 01:35:12;;;;;;;8.70;6.17;;;16.00;99.90;;;;;;4993734;28;20425;-68
2021/09/09 01:37:38;;;;;;;7.63;6.83;;;16.00;99.90;;;;;;4993454;28;20171;-69
2021/09/09 01:40:04;;;;;;;7.30;6.30;;;16.00;99.90;;;;;;4969922;28;20245;-69
2021/09/09 01:42:30;;;;;;;9.87;7.27;;;16.00;99.90;;;;;;4973543;28;20183;-69
2021/09/09 01:44:55;;;;;;;7.13;6.43;;;16.00;99.90;;;;;;4974393;28;20965;-69
2021/09/09 01:47:21;;;;;;;9.70;7.20;;;16.00;99.90;;;;;;4973883;28;20177;-70
2021/09/09 01:49:47;;;;;;;7.10;6.40;;;16.00;99.90;;;;;;4977413;28;20207;-70
2021/09/09 01:52:13;;;;;;;8.00;6.80;;;16.00;99.90;;;;;;4993550;28;20443;-69
2021/09/09 01:54:39;;;;;;;6.37;5.77;;;16.10;99.90;;;;;;4993721;28;20167;-69
2021/09/09 01:57:04;;;;;;;9.47;6.80;;;16.10;99.90;;;;;;4971861;28;20180;-69
2021/09/09 01:59:30;;;;;;;6.80;6.00;;;16.20;99.90;;;;;;4981832;28;20199;-69
2021/09/09 02:01:56;;;;;;;7.80;6.97;;;16.20;99.90;;;;;;4993649;28;20469;-69
2021/09/09 02:04:21;;;;;;;8.30;6.37;;;16.20;99.90;;;;;;4993498;28;20182;-70
2021/09/09 02:06:47;;;;;;;8.83;8.00;;;16.10;99.90;;;;;;4980306;28;20189;-69
2021/09/09 02:09:13;;;;;;;6.90;6.30;;;16.10;99.90;;;;;;4977588;28;20606;-70
2021/09/09 02:11:38;;;;;;;9.27;6.57;;;16.10;99.90;;;;;;4977754;28;20539;-69
2021/09/09 02:14:04;;;;;;;8.70;7.77;;;16.10;99.90;;;;;;4977137;28;20662;-70
2021/09/09 02:16:29;;;;;;;7.90;6.60;;;16.00;99.90;;;;;;4987822;28;20179;-73
2021/09/09 02:18:57;;;;;;;10.03;5.83;;;16.00;99.90;;;;;;4979278;28;20194;-70
2021/09/09 02:21:22;;;;;;;12.53;7.50;;;16.10;99.90;;;;;;4997116;28;20183;-69
2021/09/09 02:23:48;;;;;;;8.30;6.77;;;16.00;99.90;;;;;;4997101;28;20422;-69
2021/09/09 02:26:13;;;;;;;8.10;5.97;;;16.00;99.90;;;;;;4988142;28;20243;-69
2021/09/09 02:28:39;;;;;;;7.57;6.67;;;16.00;99.90;;;;;;4976430;28;20230;-69
2021/09/09 02:31:05;;;;;;;8.63;7.33;;;15.90;99.90;;;;;;4977386;28;20670;-69
2021/09/09 02:33:30;;;;;;;7.20;6.10;;;15.90;99.90;;;;;;4977229;28;20181;-69
2021/09/09 02:35:56;;;;;;;5.93;5.47;;;15.90;99.90;;;;;;4981814;28;20180;-69
2021/09/09 02:38:22;;;;;;;9.43;7.13;;;16.00;99.90;;;;;;4996156;28;20295;-69
2021/09/09 02:40:47;;;;;;;7.33;6.50;;;16.00;99.90;;;;;;4996712;28;20175;-69
2021/09/09 02:43:13;;;;;;;7.67;6.97;;;15.90;99.90;;;;;;4980699;28;20179;-69
2021/09/09 02:45:39;;;;;;;6.70;6.00;;;15.90;99.90;;;;;;4990841;28;20665;-70
2021/09/09 02:48:04;;;;;;;8.50;7.70;;;15.90;99.90;;;;;;4995939;28;20179;-69
2021/09/09 02:50:31;;;;;;;7.20;6.50;;;15.80;99.90;;;;;;4996469;28;20680;-69
2021/09/09 02:52:57;;;;;;;7.00;5.93;;;15.80;99.90;;;;;;4996368;28;20230;-69
2021/09/09 02:55:23;;;;;;;7.50;6.43;;;15.80;99.90;;;;;;4985146;28;20422;-69
2021/09/09 02:57:49;;;;;;;9.37;6.97;;;15.80;99.90;;;;;;4975965;28;20459;-69
2021/09/09 03:00:15;;;;;;;7.33;6.63;;;15.80;99.90;;;;;;4976658;28;20205;-69
2021/09/09 03:02:41;;;;;;;9.80;8.80;;;15.80;99.90;;;;;;4976683;28;20180;-69
2021/09/09 03:05:08;;;;;;;8.07;6.27;;;15.70;99.90;;;;;;4984811;28;20433;-69
2021/09/09 03:07:34;;;;;;;8.83;7.00;;;15.80;99.90;;;;;;4995678;28;20178;-69
2021/09/09 03:10:00;;;;;;;8.00;7.20;;;15.70;99.90;;;;;;4978762;28;20433;-69
2021/09/09 03:12:25;;;;;;;7.57;6.80;;;15.80;99.90;;;;;;4982741;28;20246;-69
2021/09/09 03:14:51;;;;;;;6.23;5.63;;;15.80;99.90;;;;;;4982293;28;20180;-69
2021/09/09 03:17:17;;;;;;;7.20;6.30;;;15.80;99.90;;;;;;4976778;28;20185;-69
2021/09/09 03:19:42;;;;;;;9.30;7.73;;;15.80;99.90;;;;;;4995921;28;20653;-69
2021/09/09 03:22:08;;;;;;;6.93;6.20;;;15.80;99.90;;;;;;4995942;28;20172;-69
2021/09/09 03:24:34;;;;;;;6.93;6.33;;;15.80;99.90;;;;;;4992006;28;20643;-69
2021/09/09 03:26:59;;;;;;;7.53;6.17;;;15.70;99.90;;;;;;4975490;28;20583;-69
2021/09/09 03:29:25;;;;;;;7.60;6.90;;;15.70;99.90;;;;;;4975863;28;20690;-69
2021/09/09 03:31:50;;;;;;;8.67;7.10;;;15.60;99.90;;;;;;4976070;28;20207;-69
2021/09/09 03:34:16;;;;;;;6.83;6.13;;;15.60;99.90;;;;;;4976980;28;20180;-69
2021/09/09 03:36:42;;;;;;;6.87;5.90;;;15.60;99.90;;;;;;4995243;28;20170;-69
2021/09/09 03:39:08;;;;;;;7.43;6.73;;;15.50;99.90;;;;;;4995460;28;20731;-69
2021/09/09 03:41:33;;;;;;;9.23;8.33;;;15.50;99.90;;;;;;4985481;28;20434;-69
2021/09/09 03:43:59;;;;;;;7.03;6.23;;;15.60;99.90;;;;;;4975861;28;20198;-69
2021/09/09 03:46:25;;;;;;;7.97;7.03;;;15.60;99.90;;;;;;4975956;28;20182;-69
2021/09/09 03:48:50;;;;;;;7.87;6.43;;;15.60;99.90;;;;;;4975429;28;20234;-69
2021/09/09 03:51:16;;;;;;;8.43;7.53;;;15.60;99.90;;;;;;4975910;28;20282;-71
2021/09/09 03:53:41;;;;;;;7.00;6.30;;;15.60;99.90;;;;;;4994653;28;20237;-69
2021/09/09 03:56:07;;;;;;;8.47;7.13;;;15.60;99.90;;;;;;4986455;28;20206;-69
2021/09/09 03:58:32;;;;;;;8.80;7.50;;;15.60;99.90;;;;;;4975208;28;20222;-69
2021/09/09 04:00:58;;;;;;;7.40;6.70;;;15.70;99.90;;;;;;4984888;28;20175;-69
2021/09/09 04:03:24;;;;;;;8.90;6.43;;;15.60;99.90;;;;;;4995223;28;20224;-69
2021/09/09 04:05:49;;;;;;;9.23;6.97;;;15.60;99.90;;;;;;4994986;28;20203;-69
2021/09/09 04:08:15;;;;;;;7.03;6.30;;;15.50;99.90;;;;;;4994513;28;20186;-69
2021/09/09 04:10:41;;;;;;;8.80;7.47;;;15.50;99.90;;;;;;4987037;28;20243;-69
2021/09/09 04:13:06;;;;;;;7.67;6.97;;;15.50;99.90;;;;;;4975393;28;20178;-69
2021/09/09 04:15:32;;;;;;;8.37;6.63;;;15.40;99.90;;;;;;4975280;28;20169;-69
2021/09/09 04:17:58;;;;;;;7.37;6.67;;;15.40;99.90;;;;;;4975200;28;20175;-69
2021/09/09 04:20:24;;;;;;;8.67;7.87;;;15.40;99.90;;;;;;4979151;28;20503;-70
2021/09/09 04:22:49;;;;;;;6.53;5.93;;;15.30;99.90;;;;;;4994588;28;20784;-69
2021/09/09 04:25:15;;;;;;;7.83;6.50;;;15.30;99.90;;;;;;4988801;28;20237;-69
2021/09/09 04:27:41;;;;;;;8.00;6.93;;;15.30;99.90;;;;;;4974730;28;20171;-68
2021/09/09 04:30:07;;;;;;;12.63;7.40;;;15.30;99.90;;;;;;4975562;28;20967;-69
2021/09/09 04:32:33;;;;;;;7.43;6.70;;;15.30;99.90;;;;;;4994486;28;20182;-68
2021/09/09 04:34:59;;;;;;;7.90;7.10;;;15.30;99.90;;;;;;4977081;28;20410;-69
2021/09/09 04:37:25;;;;;;;6.67;6.07;;;15.30;99.90;;;;;;4976612;28;20209;-69
2021/09/09 04:39:50;;;;;;;7.77;6.63;;;15.40;99.90;;;;;;4989932;28;20274;-70
2021/09/09 04:42:16;;;;;;;8.70;6.77;;;15.40;99.90;;;;;;4992508;28;20506;-67
2021/09/09 04:44:42;;;;;;;10.40;7.47;;;15.40;99.90;;;;;;4981375;28;20183;-67
2021/09/09 04:47:07;;;;;;;8.23;7.20;;;15.50;99.90;;;;;;4975374;28;20642;-67
2021/09/09 04:49:33;;;;;;;8.37;6.50;;;15.50;99.90;;;;;;4974504;28;20223;-69
2021/09/09 04:51:59;;;;;;;8.33;6.87;;;15.50;99.90;;;;;;4975009;28;20218;-70
2021/09/09 04:54:24;;;;;;;8.50;7.60;;;15.60;99.90;;;;;;4974384;28;20705;-70
2021/09/09 04:56:50;;;;;;;7.67;6.87;;;15.60;99.90;;;;;;4974434;28;20172;-70
2021/09/09 04:59:16;;;;;;;8.87;8.07;;;15.60;99.90;;;;;;4974560;28;20226;-70
2021/09/09 05:01:41;;;;;;;8.33;7.27;;;15.70;99.90;;;;;;4989125;28;20637;-68
2021/09/09 05:04:07;;;;;;;8.13;7.20;;;15.80;99.90;;;;;;4992455;28;20358;-68
2021/09/09 05:06:33;;;;;;;7.73;6.20;;;15.80;99.90;;;;;;4993724;28;20177;-69
2021/09/09 05:08:58;;;;;;;8.70;7.90;;;15.80;99.90;;;;;;4991896;28;20230;-67
2021/09/09 05:11:24;;;;;;;7.37;6.67;;;15.80;99.90;;;;;;4974228;28;20203;-69
2021/09/09 05:13:49;;;;;;;7.63;6.90;;;15.90;99.90;;;;;;4974324;28;20231;-69
2021/09/09 05:16:15;;;;;;;13.80;7.67;;;15.90;99.90;;;;;;4974319;28;20263;-69
2021/09/09 05:18:41;;;;;;;7.57;6.07;;;16.00;99.90;;;;;;4973680;28;20204;-69
2021/09/09 05:21:06;;;;;;;7.57;6.97;;;16.00;99.90;;;;;;4974462;28;20190;-69
2021/09/09 05:23:32;;;;;;;8.07;7.27;;;16.10;99.90;;;;;;4984839;28;20187;-71
2021/09/09 05:25:57;;;;;;;9.50;7.43;;;16.10;99.90;;;;;;4993741;28;20516;-70
2021/09/09 05:28:23;;;;;;;7.90;6.13;;;16.20;99.90;;;;;;4993212;28;20207;-69
2021/09/09 05:30:49;;;;;;;9.70;6.93;;;16.20;99.90;;;;;;4958343;28;20215;-69
2021/09/09 05:33:15;;;;;;;8.33;7.13;;;16.20;99.90;;;;;;4981869;28;20534;-69
2021/09/09 05:35:43;;;;;;;7.57;5.90;;;16.30;99.90;;;;;;4993263;28;20230;-69
2021/09/09 05:38:08;;;;;;;7.83;6.33;;;16.30;99.90;;;;;;4993177;28;20434;-69
2021/09/09 05:40:34;;;;;;;7.60;6.80;;;16.40;99.90;;;;;;4992175;28;20481;-71
2021/09/09 05:43:00;;;;;;;7.27;6.57;;;16.40;99.90;;;;;;4996424;28;20675;-69
2021/09/09 05:45:25;;;;;;;10.47;7.73;;;16.50;99.90;;;;;;4980636;28;20649;-69
2021/09/09 05:47:51;;;;;;;10.93;8.40;;;16.60;99.90;;;;;;4977106;28;20199;-69
2021/09/09 05:50:17;;;;;;;6.90;6.17;;;16.70;99.90;;;;;;4979255;28;20216;-69
2021/09/09 05:52:44;;;;;;;7.07;6.20;;;16.90;99.90;;;;;;4980096;28;20264;-69
2021/09/09 05:55:10;;;;;;;6.13;5.37;;;17.10;99.90;;;;;;4979860;28;20415;-68
2021/09/09 05:57:36;;;;;;;7.70;6.87;;;17.30;99.90;;;;;;4991934;28;20974;-70
2021/09/09 06:00:02;;;;;;;6.40;5.80;;;17.50;99.90;;;;;;4977400;28;20229;-69
2021/09/09 06:02:28;;;;;;;6.73;6.13;;;17.70;99.90;;;;;;4977967;28;20409;-69
2021/09/09 06:04:55;;;;;;;7.20;6.40;;;17.90;99.90;;;;;;4977774;28;20421;-69
2021/09/09 06:07:22;;;;;;;7.30;6.30;;;18.10;99.90;;;;;;4977145;28;20513;-69
2021/09/09 06:09:48;;;;;;;8.37;6.60;;;18.20;99.90;;;;;;4977558;28;20413;-69
2021/09/09 06:12:14;;;;;;;7.30;5.93;;;18.30;99.90;;;;;;4976484;28;20473;-73
2021/09/09 06:14:39;;;;;;;6.77;6.03;;;18.30;99.90;;;;;;4977310;28;20186;-69
2021/09/09 06:17:05;;;;;;;6.77;6.17;;;18.40;99.90;;;;;;4976772;28;20572;-68
2021/09/09 06:19:33;;;;;;;7.77;5.93;;;18.40;99.90;;;;;;4995819;28;20267;-68
2021/09/09 06:21:59;;;;;;;6.90;5.60;;;18.50;99.90;;;;;;4996675;28;20410;-67
2021/09/09 06:24:25;;;;;;;7.00;5.90;;;18.50;99.90;;;;;;4986150;28;20433;-67
2021/09/09 06:26:51;;;;;;;7.30;6.00;;;18.50;99.90;;;;;;4976449;28;20642;-70
2021/09/09 06:29:16;;;;;;;7.50;5.27;;;18.60;99.90;;;;;;4978206;28;20517;-69
2021/09/09 06:31:42;;;;;;;6.33;5.17;;;18.70;99.90;;;;;;4977124;28;20207;-68
2021/09/09 06:34:08;;;;;;;6.30;5.50;;;18.90;99.90;;;;;;4977165;28;20208;-67
2021/09/09 06:36:33;;;;;;;6.30;5.70;;;19.10;99.90;;;;;;4976664;28;20200;-68
2021/09/09 06:39:01;;;;;;;7.70;5.63;;;19.20;99.90;;;;;;4982072;28;20214;-70
2021/09/09 06:41:27;;;;;;;5.57;4.97;;;19.40;99.90;;;;;;4977019;28;20168;-68
2021/09/09 06:43:52;;;;;;;8.40;6.23;;;19.50;99.90;;;;;;4976918;28;20409;-66
2021/09/09 06:46:18;;;;;;;6.10;5.60;;;19.60;99.90;;;;;;4977867;28;20258;-67
2021/09/09 06:48:43;;;;;;;6.90;6.37;;;19.70;99.90;;;;;;4975971;28;20215;-67
2021/09/09 06:51:09;;;;;;;7.53;6.20;;;19.80;99.90;;;;;;4976580;28;20204;-67
2021/09/09 06:53:35;;;;;;;6.03;5.43;;;19.80;99.90;;;;;;4974731;28;20250;-67
2021/09/09 06:56:00;;;;;;;6.00;5.40;;;20.00;99.90;;;;;;4966249;28;20171;-68
2021/09/09 06:58:26;;;;;;;6.93;5.40;;;20.30;99.90;;;;;;4993992;28;20546;-68
2021/09/09 07:00:52;;;;;;;6.10;5.07;;;20.70;99.90;;;;;;4994332;28;20242;-68
2021/09/09 07:03:18;;;;;;;7.13;5.37;;;21.00;99.90;;;;;;4990566;28;20530;-69
2021/09/09 07:05:43;;;;;;;5.93;5.23;;;21.40;99.90;;;;;;4957613;28;20172;-69
2021/09/09 07:08:11;;;;;;;5.63;5.10;;;21.70;99.90;;;;;;4974332;28;20208;-67
2021/09/09 07:10:37;;;;;;;5.43;4.93;;;21.90;99.90;;;;;;4977455;28;20469;-66
2021/09/09 07:13:03;;;;;;;5.50;4.97;;;22.10;99.90;;;;;;4976478;28;20947;-67
2021/09/09 07:15:28;;;;;;;5.30;4.90;;;22.40;99.90;;;;;;4977560;28;20181;-67
2021/09/09 07:17:54;;;;;;;6.43;5.07;;;22.70;99.90;;;;;;4990963;28;20229;-67
2021/09/09 07:20:20;;;;;;;5.50;5.10;;;23.00;99.90;;;;;;4976156;28;20186;-67
2021/09/09 07:22:46;;;;;;;5.80;5.30;;;23.40;99.90;;;;;;4976525;28;20179;-67
2021/09/09 07:25:12;;;;;;;6.30;4.90;;;23.80;99.90;;;;;;4985030;28;20673;-67
2021/09/09 07:27:37;;;;;;;5.47;4.97;;;24.10;99.90;;;;;;4995319;28;20573;-67
2021/09/09 07:30:04;;;;;;;4.97;4.30;;;24.40;99.90;;;;;;4995175;28;20426;-66
2021/09/09 07:32:30;;;;;;;6.13;5.50;;;24.50;99.90;;;;;;4995581;28;20168;-67
2021/09/09 07:34:56;;;;;;;5.10;4.60;;;24.50;99.90;;;;;;4981694;28;20485;-68
2021/09/09 07:37:21;;;;;;;7.63;5.27;;;24.60;99.90;;;;;;4993245;28;20171;-67
2021/09/09 07:39:48;;;;;;;6.03;5.27;;;24.60;99.90;;;;;;4979283;28;20209;-67
2021/09/09 07:42:14;;;;;;;6.13;5.53;;;24.70;99.90;;;;;;4975903;28;20180;-67
2021/09/09 07:44:40;;;;;;;5.73;5.23;;;24.80;99.90;;;;;;4958642;28;20401;-68
2021/09/09 07:47:06;;;;;;;4.47;4.07;;;24.90;99.90;;;;;;4991561;28;20427;-67
2021/09/09 07:49:32;;;;;;;6.13;5.57;;;25.00;99.90;;;;;;4995259;28;20223;-67
2021/09/09 07:51:58;;;;;;;6.10;5.30;;;25.40;99.90;;;;;;4995183;28;20466;-68
2021/09/09 07:54:24;;;;;;;7.30;6.03;;;26.10;98.80;;;;;;4979161;28;20185;-68
2021/09/09 07:56:49;;;;;;;6.33;5.73;;;27.00;97.50;;;;;;4958001;28;20203;-67
2021/09/09 07:59:16;;;;;;;5.47;4.97;;;27.70;95.60;;;;;;4975604;28;20250;-68
2021/09/09 08:01:44;;;;;;;6.10;5.50;;;28.30;94.50;;;;;;4975714;28;20188;-66
2021/09/09 08:04:15;;;;;;;6.50;5.90;;;29.10;93.30;;;;;;4966232;28;20390;-66
2021/09/09 08:06:42;;;;;;;6.33;4.90;;;30.00;92.20;;;;;;4994614;28;20389;-66
2021/09/09 08:09:08;;;;;;;6.07;5.17;;;30.70;90.00;;;;;;4963321;28;20436;-68
2021/09/09 08:11:34;;;;;;;6.87;6.20;;;31.40;87.10;;;;;;4975161;28;21007;-69
2021/09/09 08:13:59;;;;;;;6.10;5.60;;;31.90;83.30;;;;;;4975429;28;20491;-70
2021/09/09 08:16:25;;;;;;;5.60;5.10;;;31.90;83.20;;;;;;4975347;28;20663;-71
2021/09/09 08:18:51;;;;;;;6.17;5.57;;;32.10;82.00;;;;;;4975749;28;20240;-69
2021/09/09 08:21:17;;;;;;;5.97;5.40;;;32.50;79.90;;;;;;4975484;28;20187;-70
2021/09/09 08:23:43;;;;;;;6.83;6.17;;;32.90;78.40;;;;;;4979862;28;20435;-69
2021/09/09 08:26:10;;;;;;;5.97;5.47;;;32.60;78.30;;;;;;4976734;28;20175;-70
2021/09/09 08:28:37;;;;;;;5.40;4.90;;;32.20;78.80;;;;;;4976107;28;20282;-69
2021/09/09 08:31:05;;;;;;;5.37;4.97;;;32.20;78.00;;;;;;4974480;28;20488;-68
2021/09/09 08:33:31;;;;;;;5.10;4.70;;;32.10;78.90;;;;;;4979608;28;20393;-68
2021/09/09 08:35:57;;;;;;;6.27;5.67;;;32.30;78.40;;;;;;4974845;28;20390;-69
2021/09/09 08:38:23;;;;;;;6.93;5.70;;;32.30;77.80;;;;;;4980402;28;20901;-69
2021/09/09 08:40:52;;;;;;;5.20;4.80;;;32.00;77.90;;;;;;4957291;28;20191;-69
2021/09/09 08:43:19;;;;;;;6.47;5.37;;;31.80;78.80;;;;;;4956898;28;20649;-68
2021/09/09 08:45:50;;;;;;;6.50;5.90;;;31.90;79.70;;;;;;4974595;28;20473;-69
2021/09/09 08:48:17;;;;;;;6.00;5.40;;;31.90;78.50;;;;;;4974095;28;20396;-69
2021/09/09 08:50:42;;;;;;;5.90;4.83;;;31.80;78.70;;;;;;4973735;28;20464;-67
2021/09/09 08:53:09;;;;;;;6.13;5.53;;;31.90;79.10;;;;;;4976580;28;20410;-67
2021/09/09 08:55:35;;;;;;;6.03;5.63;;;32.20;77.30;;;;;;4993618;28;20164;-68
2021/09/09 08:58:02;;;;;;;5.37;4.97;;;32.30;78.30;;;;;;4985841;28;20825;-69
2021/09/09 09:00:31;;;;;;;6.30;5.70;;;32.10;77.00;;;;;;4974107;28;20486;-70
2021/09/09 09:02:57;;;;;;;6.20;5.70;;;31.80;79.20;;;;;;4974268;28;20454;-70
2021/09/09 09:05:25;;;;;;;5.23;4.83;;;32.00;79.80;;;;;;4992332;28;20397;-70
2021/09/09 09:07:59;;;;;;;5.10;4.70;;;32.60;77.20;;;;;;4975625;28;20421;-69
2021/09/09 09:10:25;;;;;;;5.10;4.70;;;33.50;75.70;;;;;;4991301;28;21018;-70
2021/09/09 09:12:50;;;;;;;5.67;5.20;;;34.40;72.70;;;;;;4993462;28;20788;-73
2021/09/09 09:15:32;;;;;;;5.67;5.00;;;35.20;69.80;;;;;;4992380;28;20403;-74
2021/09/09 09:18:04;;;;;;;5.83;5.43;;;35.60;66.60;;;;;;4992970;28;20174;-72
2021/09/09 09:20:46;;;;;;;6.33;5.73;;;35.70;66.40;;;;;;4993234;28;20377;-67
2021/09/09 09:23:21;;;;;;;6.37;5.87;;;35.90;64.50;;;;;;4956575;28;20416;-69
2021/09/09 09:25:48;;;;;;;6.90;6.30;;;36.00;64.70;;;;;;4974107;28;20411;-69
2021/09/09 09:28:15;;;;;;;6.57;5.97;;;36.40;63.70;;;;;;4968021;28;20924;-70
2021/09/09 09:31:16;;;;;;;6.17;5.77;;;36.90;63.40;;;;;;4993401;28;20494;-70
2021/09/09 09:33:44;;;;;;;5.73;5.30;;;37.60;62.00;;;;;;4990721;28;20427;-70
2021/09/09 09:36:15;;;;;;;6.20;5.80;;;38.00;59.40;;;;;;4993731;28;20403;-70
2021/09/09 09:38:42;;;;;;;6.00;5.40;;;38.10;59.50;;;;;;4993266;28;20422;-69
2021/09/09 09:41:08;;;;;;;5.43;5.03;;;38.30;59.10;;;;;;4993757;28;20410;-72
2021/09/09 09:43:34;;;;;;;5.57;5.17;;;38.50;57.90;;;;;;4993572;28;20411;-69
2021/09/09 09:45:59;;;;;;;5.80;5.47;;;38.90;57.50;;;;;;4980689;28;20193;-69
2021/09/09 09:48:31;;;;;;;6.00;5.47;;;39.00;56.70;;;;;;4993202;28;20528;-70
2021/09/09 09:50:56;;;;;;;5.87;5.37;;;39.00;57.00;;;;;;4982905;28;20214;-68
2021/09/09 09:53:22;;;;;;;5.80;5.40;;;39.10;56.90;;;;;;4974258;28;20411;-69
2021/09/09 09:55:48;;;;;;;6.77;5.60;;;39.40;56.30;;;;;;4974217;28;20254;-69
2021/09/09 09:58:18;;;;;;;5.97;5.47;;;39.40;54.60;;;;;;4973783;28;20171;-72
2021/09/09 10:00:44;;;;;;;8.43;7.73;;;39.40;54.70;;;;;;4992423;28;20427;-72
2021/09/09 10:03:10;;;;;;;9.30;6.17;;;39.40;54.50;;;;;;4993561;28;20443;-72
2021/09/09 10:05:37;;;;;;;6.63;6.13;;;39.40;55.90;;;;;;4993599;28;20509;-70
2021/09/09 10:08:04;;;;;;;5.87;5.37;;;39.40;55.00;;;;;;4992920;28;20577;-71
2021/09/09 10:10:30;;;;;;;7.20;6.70;;;39.30;54.00;;;;;;4993523;28;20561;-72
2021/09/09 10:12:56;;;;;;;5.60;5.20;;;39.10;53.90;;;;;;4989777;28;20435;-68
2021/09/09 10:15:23;;;;;;;5.17;4.83;;;39.00;54.00;;;;;;4973848;28;20779;-66
2021/09/09 10:17:52;;;;;;;6.03;5.53;;;38.70;54.00;;;;;;4973497;28;20416;-70
2021/09/09 10:20:26;;;;;;;4.90;4.60;;;38.40;54.40;;;;;;4973648;28;20435;-68
2021/09/09 10:23:07;;;;;;;5.93;5.53;;;38.40;54.40;;;;;;4973773;28;20451;-68
2021/09/09 10:25:54;;;;;;;6.33;5.83;;;38.40;54.30;;;;;;4973916;28;20419;-68
2021/09/09 10:28:45;;;;;;;6.07;5.60;;;38.00;55.10;;;;;;4989798;28;20415;-69
2021/09/09 10:31:13;;;;;;;5.57;5.07;;;37.70;55.70;;;;;;4996858;28;20845;-68
2021/09/09 10:33:50;;;;;;;5.40;5.00;;;37.60;55.60;;;;;;4995110;28;20823;-66
2021/09/09 10:36:38;;;;;;;4.97;4.57;;;37.40;55.80;;;;;;4996627;28;20472;-68
2021/09/09 10:39:04;;;;;;;5.20;4.90;;;37.30;56.00;;;;;;4996359;28;20423;-69
2021/09/09 10:41:30;;;;;;;6.20;5.70;;;37.20;55.70;;;;;;4996375;28;20418;-69
2021/09/09 10:44:01;;;;;;;6.00;5.50;;;37.30;56.20;;;;;;4996489;28;20414;-70
2021/09/09 10:46:36;;;;;;;5.10;4.73;;;37.30;56.00;;;;;;4996441;28;20650;-69
2021/09/09 10:49:14;;;;;;;5.97;5.53;;;37.20;55.60;;;;;;4975125;28;20443;-71
2021/09/09 10:52:03;;;;;;;5.73;5.33;;;37.20;55.90;;;;;;4976667;28;20455;-66
2021/09/09 10:54:29;;;;;;;5.57;5.07;;;36.80;56.70;;;;;;4976864;28;20408;-68
2021/09/09 10:57:13;;;;;;;6.33;5.83;;;36.40;57.70;;;;;;4976553;28;20744;-67
2021/09/09 10:59:49;;;;;;;5.53;5.00;;;35.90;57.60;;;;;;4959320;28;20319;-68
2021/09/09 11:02:16;;;;;;;8.20;5.03;;;35.60;59.10;;;;;;4976235;28;20906;-68
2021/09/09 11:04:44;;;;;;;5.63;5.13;;;35.30;58.90;;;;;;4993608;28;20754;-67
2021/09/09 11:07:23;;;;;;;6.43;5.83;;;35.10;59.30;;;;;;4974201;28;20416;-67
2021/09/09 11:10:07;;;;;;;5.47;5.07;;;34.60;59.40;;;;;;4976263;28;20441;-71
2021/09/09 11:12:39;;;;;;;5.57;5.00;;;33.90;59.60;;;;;;4987480;28;20517;-68
2021/09/09 11:15:13;;;;;;;8.13;7.33;;;33.00;61.50;;;;;;4993008;28;20417;-70
2021/09/09 11:17:39;;;;;;;5.67;5.17;;;32.20;64.30;;;;;;4995550;28;20385;-75
2021/09/09 11:20:10;;;;;;;5.40;4.90;;;31.80;66.20;;;;;;4985564;28;20411;-66
2021/09/09 11:22:37;;;;;;;5.83;5.10;;;31.30;68.00;;;;;;4976250;28;20459;-67
2021/09/09 11:25:04;;;;;;;9.20;5.00;;;31.10;68.00;;;;;;4976317;28;20391;-67
2021/09/09 11:27:33;;;;;;;5.50;5.00;;;30.80;67.00;;;;;;4975539;28;20418;-66
2021/09/09 11:30:01;;;;;;;5.23;4.73;;;30.50;68.50;;;;;;4976091;28;20459;-67
2021/09/09 11:32:28;;;;;;;5.70;4.53;;;30.20;70.40;;;;;;4976231;28;20455;-67
2021/09/09 11:35:08;;;;;;;5.40;4.90;;;29.90;72.30;;;;;;4976207;28;20419;-67
2021/09/09 11:37:44;;;;;;;5.33;4.23;;;29.80;73.40;;;;;;4975819;28;20404;-67
2021/09/09 11:40:11;;;;;;;7.97;5.47;;;29.80;72.90;;;;;;4975677;28;20480;-67
2021/09/09 11:42:37;;;;;;;4.40;4.00;;;29.80;73.20;;;;;;4976200;28;20413;-66
2021/09/09 11:45:03;;;;;;;4.73;4.30;;;29.70;71.00;;;;;;4975953;28;20410;-66
2021/09/09 11:47:29;;;;;;;3.80;3.50;;;29.50;71.70;;;;;;4975950;28;20267;-66
2021/09/09 11:50:02;;;;;;;5.40;5.00;;;29.40;73.70;;;;;;4975711;28;20884;-66
2021/09/09 11:52:28;;;;;;;3.80;3.50;;;29.20;74.00;;;;;;4975848;28;20611;-66
2021/09/09 11:54:54;;;;;;;4.30;3.87;;;29.10;74.30;;;;;;4975618;28;20445;-66
2021/09/09 11:57:19;;;;;;;4.20;3.80;;;29.10;75.10;;;;;;4975188;28;20709;-67
2021/09/09 11:59:51;;;;;;;3.87;3.57;;;29.20;75.00;;;;;;4975703;28;20188;-67
2021/09/09 12:02:20;;;;;;;5.03;3.90;;;29.20;74.10;;;;;;4975575;28;20184;-66
2021/09/09 12:04:46;;;;;;;4.90;4.50;;;29.20;75.20;;;;;;4975804;28;20490;-67
2021/09/09 12:07:24;;;;;;;4.77;4.23;;;29.30;75.30;;;;;;4975351;28;20479;-68
2021/09/09 12:09:58;;;;;;;4.77;4.03;;;29.30;74.60;;;;;;4975557;28;20183;-67
2021/09/09 12:12:25;;;;;;;5.13;4.63;;;29.20;75.60;;;;;;4975443;28;20550;-68
2021/09/09 12:15:24;;;;;;;5.07;4.03;;;29.30;76.70;;;;;;4975537;28;20400;-67
2021/09/09 12:17:49;;;;;;;4.80;4.33;;;29.30;73.80;;;;;;4953510;28;20445;-68
2021/09/09 12:20:26;;;;;;;4.33;3.93;;;29.30;75.50;;;;;;4975351;28;20398;-68
2021/09/09 12:23:00;;;;;;;4.93;4.33;;;29.20;74.90;;;;;;4975246;28;20195;-66
2021/09/09 12:25:28;;;;;;;4.10;3.70;;;29.20;74.40;;;;;;4975247;28;20409;-67
2021/09/09 12:27:57;;;;;;;4.40;4.00;;;29.00;75.00;;;;;;4974842;28;20383;-66
2021/09/09 12:30:29;;;;;;;4.20;3.80;;;28.90;76.30;;;;;;4975136;28;20482;-66
2021/09/09 12:32:55;;;;;;;3.73;3.43;;;28.80;75.90;;;;;;4975289;28;20447;-66
2021/09/09 12:35:23;;;;;;;4.20;3.90;;;28.80;75.90;;;;;;4975050;28;20375;-67
2021/09/09 12:38:05;;;;;;;3.73;3.43;;;28.90;76.60;;;;;;4974674;28;20400;-67
2021/09/09 12:40:46;;;;;;;3.83;3.53;;;28.80;75.00;;;;;;4975200;28;20381;-67
2021/09/09 12:43:27;;;;;;;4.00;3.70;;;28.70;76.10;;;;;;4975103;28;20424;-67
2021/09/09 12:45:53;;;;;;;3.83;3.33;;;28.70;76.40;;;;;;4957740;28;20786;-68
2021/09/09 12:48:19;;;;;;;4.20;3.80;;;28.70;77.00;;;;;;4974457;28;20402;-68